KGRF/GRF METAR and TAF weather

Enter ICAO airport designator
Station Type Date Time Source
KGRF METAR 2019/12/09 21:58 UTC NOAA

KGRF 092158Z AUTO 33005KT 10SM OVC011 07/07 A3021 RMK AO2 SLP236 T00740074 $


Station Type Date Time Source
KGRF Decoded METAR 2019/12/09 21:58 UTC NOAA

Fort Lewis / Gray U. S. Army Airfield, WA, United States (KGRF) 47-07N 122-33W 87M
Dec 09, 2019 - 04:58 PM EST / 2019.12.09 2158 UTC
Wind: from the NNW (330 degrees) at 6 MPH (5 KT):0
Visibility: 10 mile(s):0
Sky conditions: overcast
Temperature: 45.3 F (7.4 C)
Dew Point: 45.3 F (7.4 C)
Relative Humidity: 100%
Pressure (altimeter): 30.21 in. Hg (1023 hPa)
ob: KGRF 092158Z AUTO 33005KT 10SM OVC011 07/07 A3021 RMK AO2 SLP236 T00740074
cycle: 22

Station Type Date Time Source
KGRF TAF 2019/12/09 21:06 UTC NOAA

TAF KGRF 092102Z 0921/1103 VRB06KT 9999 OVC015 QNH3016INS
BECMG 1004/1005 VRB06KT 4800 BR OVC200 QNH3012INS
BECMG 1014/1015 VRB06KT 9999 NSW OVC200 QNH3016INS
BECMG 1021/1022 VRB06KT 8000 -SHRA BR SCT020 OVC030 620604 QNH3010INS TX08/0921Z TN04/1016Z

Example: see airport list